sensor_id;sensor_type;location;lat;lon;timestamp;P1;durP1;ratioP1;P2;durP2;ratioP2
29906;SDS011;16776;50.958;10.994;2024-03-17T00:00:59;1.90;;;0.63;;
29906;SDS011;16776;50.958;10.994;2024-03-17T00:03:25;2.40;;;0.88;;
29906;SDS011;16776;50.958;10.994;2024-03-17T00:05:56;1.00;;;0.70;;
29906;SDS011;16776;50.958;10.994;2024-03-17T00:08:22;2.15;;;0.90;;
29906;SDS011;16776;50.958;10.994;2024-03-17T00:10:49;2.50;;;0.80;;
29906;SDS011;16776;50.958;10.994;2024-03-17T00:13:15;0.70;;;0.70;;
29906;SDS011;16776;50.958;10.994;2024-03-17T00:15:42;1.05;;;0.95;;
29906;SDS011;16776;50.958;10.994;2024-03-17T00:18:07;1.92;;;0.80;;
29906;SDS011;16776;50.958;10.994;2024-03-17T00:20:35;1.38;;;0.77;;
29906;SDS011;16776;50.958;10.994;2024-03-17T00:23:02;1.55;;;0.68;;
29906;SDS011;16776;50.958;10.994;2024-03-17T00:25:31;1.50;;;0.80;;
29906;SDS011;16776;50.958;10.994;2024-03-17T00:27:57;0.98;;;0.68;;
29906;SDS011;16776;50.958;10.994;2024-03-17T00:30:23;2.13;;;0.75;;
29906;SDS011;16776;50.958;10.994;2024-03-17T00:32:49;1.48;;;0.68;;
29906;SDS011;16776;50.958;10.994;2024-03-17T00:35:15;1.98;;;0.90;;
29906;SDS011;16776;50.958;10.994;2024-03-17T00:37:45;0.93;;;0.60;;
29906;SDS011;16776;50.958;10.994;2024-03-17T00:40:13;0.70;;;0.70;;
29906;SDS011;16776;50.958;10.994;2024-03-17T00:42:39;0.60;;;0.50;;
29906;SDS011;16776;50.958;10.994;2024-03-17T00:45:06;0.82;;;0.60;;
29906;SDS011;16776;50.958;10.994;2024-03-17T00:47:32;1.35;;;0.82;;
29906;SDS011;16776;50.958;10.994;2024-03-17T00:49:59;1.05;;;0.85;;
29906;SDS011;16776;50.958;10.994;2024-03-17T00:52:25;1.52;;;0.73;;
29906;SDS011;16776;50.958;10.994;2024-03-17T00:54:52;1.17;;;0.60;;
29906;SDS011;16776;50.958;10.994;2024-03-17T00:57:20;1.17;;;0.70;;
29906;SDS011;16776;50.958;10.994;2024-03-17T00:59:46;1.75;;;0.80;;
29906;SDS011;16776;50.958;10.994;2024-03-17T01:02:12;1.33;;;0.60;;
29906;SDS011;16776;50.958;10.994;2024-03-17T01:04:41;0.60;;;0.60;;
29906;SDS011;16776;50.958;10.994;2024-03-17T01:07:07;0.82;;;0.80;;
29906;SDS011;16776;50.958;10.994;2024-03-17T01:09:33;2.47;;;0.90;;
29906;SDS011;16776;50.958;10.994;2024-03-17T01:12:00;1.02;;;0.70;;
29906;SDS011;16776;50.958;10.994;2024-03-17T01:14:28;1.42;;;0.80;;
29906;SDS011;16776;50.958;10.994;2024-03-17T01:16:54;1.88;;;0.70;;
29906;SDS011;16776;50.958;10.994;2024-03-17T01:19:20;0.77;;;0.77;;
29906;SDS011;16776;50.958;10.994;2024-03-17T01:21:46;1.00;;;0.70;;
29906;SDS011;16776;50.958;10.994;2024-03-17T01:24:13;2.00;;;1.15;;
29906;SDS011;16776;50.958;10.994;2024-03-17T01:26:38;1.30;;;1.00;;
29906;SDS011;16776;50.958;10.994;2024-03-17T01:29:05;1.05;;;0.70;;
29906;SDS011;16776;50.958;10.994;2024-03-17T01:31:32;1.45;;;0.77;;
29906;SDS011;16776;50.958;10.994;2024-03-17T01:33:58;1.25;;;0.70;;
29906;SDS011;16776;50.958;10.994;2024-03-17T01:36:24;1.02;;;0.70;;
29906;SDS011;16776;50.958;10.994;2024-03-17T01:38:51;1.70;;;1.00;;
29906;SDS011;16776;50.958;10.994;2024-03-17T01:41:17;1.35;;;0.80;;
29906;SDS011;16776;50.958;10.994;2024-03-17T01:43:43;0.75;;;0.75;;
29906;SDS011;16776;50.958;10.994;2024-03-17T01:46:10;1.00;;;0.52;;
29906;SDS011;16776;50.958;10.994;2024-03-17T01:48:40;0.73;;;0.73;;
29906;SDS011;16776;50.958;10.994;2024-03-17T01:51:07;0.75;;;0.68;;
29906;SDS011;16776;50.958;10.994;2024-03-17T01:53:35;0.95;;;0.55;;
29906;SDS011;16776;50.958;10.994;2024-03-17T01:56:02;2.92;;;0.90;;
29906;SDS011;16776;50.958;10.994;2024-03-17T01:58:30;0.75;;;0.70;;
29906;SDS011;16776;50.958;10.994;2024-03-17T02:00:56;2.03;;;0.63;;
29906;SDS011;16776;50.958;10.994;2024-03-17T02:03:24;2.13;;;0.73;;
29906;SDS011;16776;50.958;10.994;2024-03-17T02:05:51;1.95;;;0.63;;
29906;SDS011;16776;50.958;10.994;2024-03-17T02:08:18;0.68;;;0.57;;
29906;SDS011;16776;50.958;10.994;2024-03-17T02:10:44;0.52;;;0.52;;
29906;SDS011;16776;50.958;10.994;2024-03-17T02:13:10;1.35;;;0.55;;
29906;SDS011;16776;50.958;10.994;2024-03-17T02:15:37;1.27;;;1.00;;
29906;SDS011;16776;50.958;10.994;2024-03-17T02:18:03;0.63;;;0.60;;
29906;SDS011;16776;50.958;10.994;2024-03-17T02:20:30;0.68;;;0.40;;
29906;SDS011;16776;50.958;10.994;2024-03-17T02:23:12;1.23;;;0.50;;
29906;SDS011;16776;50.958;10.994;2024-03-17T02:25:38;0.70;;;0.70;;
29906;SDS011;16776;50.958;10.994;2024-03-17T02:28:05;0.60;;;0.43;;
29906;SDS011;16776;50.958;10.994;2024-03-17T02:30:30;0.95;;;0.60;;
29906;SDS011;16776;50.958;10.994;2024-03-17T02:32:57;0.50;;;0.50;;
29906;SDS011;16776;50.958;10.994;2024-03-17T02:35:23;2.75;;;0.63;;
29906;SDS011;16776;50.958;10.994;2024-03-17T02:37:51;1.08;;;0.63;;
29906;SDS011;16776;50.958;10.994;2024-03-17T02:40:18;0.80;;;0.40;;
29906;SDS011;16776;50.958;10.994;2024-03-17T02:42:45;0.80;;;0.47;;
29906;SDS011;16776;50.958;10.994;2024-03-17T02:45:12;0.90;;;0.50;;
29906;SDS011;16776;50.958;10.994;2024-03-17T02:47:38;0.50;;;0.50;;
29906;SDS011;16776;50.958;10.994;2024-03-17T02:50:06;0.85;;;0.50;;
29906;SDS011;16776;50.958;10.994;2024-03-17T02:52:34;0.40;;;0.40;;
29906;SDS011;16776;50.958;10.994;2024-03-17T02:55:00;0.50;;;0.50;;
29906;SDS011;16776;50.958;10.994;2024-03-17T02:57:28;0.70;;;0.60;;
29906;SDS011;16776;50.958;10.994;2024-03-17T02:59:57;0.75;;;0.40;;
29906;SDS011;16776;50.958;10.994;2024-03-17T03:02:24;0.85;;;0.50;;
29906;SDS011;16776;50.958;10.994;2024-03-17T03:04:50;0.47;;;0.47;;
29906;SDS011;16776;50.958;10.994;2024-03-17T03:07:17;0.63;;;0.40;;
29906;SDS011;16776;50.958;10.994;2024-03-17T03:09:44;0.73;;;0.50;;
29906;SDS011;16776;50.958;10.994;2024-03-17T03:12:11;0.95;;;0.70;;
29906;SDS011;16776;50.958;10.994;2024-03-17T03:14:38;0.77;;;0.60;;
29906;SDS011;16776;50.958;10.994;2024-03-17T03:17:05;0.38;;;0.38;;
29906;SDS011;16776;50.958;10.994;2024-03-17T03:19:34;0.95;;;0.40;;
29906;SDS011;16776;50.958;10.994;2024-03-17T03:22:01;1.63;;;0.93;;
29906;SDS011;16776;50.958;10.994;2024-03-17T03:24:28;1.17;;;0.65;;
29906;SDS011;16776;50.958;10.994;2024-03-17T03:26:54;0.70;;;0.55;;
29906;SDS011;16776;50.958;10.994;2024-03-17T03:29:21;0.60;;;0.52;;
29906;SDS011;16776;50.958;10.994;2024-03-17T03:31:49;1.35;;;0.50;;
29906;SDS011;16776;50.958;10.994;2024-03-17T03:34:15;1.38;;;0.57;;
29906;SDS011;16776;50.958;10.994;2024-03-17T03:36:42;2.50;;;0.73;;
29906;SDS011;16776;50.958;10.994;2024-03-17T03:39:09;1.88;;;0.52;;
29906;SDS011;16776;50.958;10.994;2024-03-17T03:41:36;0.40;;;0.40;;
29906;SDS011;16776;50.958;10.994;2024-03-17T03:44:03;1.67;;;0.65;;
29906;SDS011;16776;50.958;10.994;2024-03-17T03:46:29;0.70;;;0.40;;
29906;SDS011;16776;50.958;10.994;2024-03-17T03:48:57;0.85;;;0.40;;
29906;SDS011;16776;50.958;10.994;2024-03-17T03:51:26;0.80;;;0.47;;
29906;SDS011;16776;50.958;10.994;2024-03-17T03:53:53;0.50;;;0.50;;
29906;SDS011;16776;50.958;10.994;2024-03-17T03:56:19;2.15;;;0.80;;
29906;SDS011;16776;50.958;10.994;2024-03-17T03:58:46;2.05;;;0.70;;
29906;SDS011;16776;50.958;10.994;2024-03-17T04:01:12;1.13;;;0.60;;
29906;SDS011;16776;50.958;10.994;2024-03-17T04:03:46;0.35;;;0.35;;
29906;SDS011;16776;50.958;10.994;2024-03-17T04:06:14;0.73;;;0.73;;
29906;SDS011;16776;50.958;10.994;2024-03-17T04:08:41;2.20;;;0.70;;
29906;SDS011;16776;50.958;10.994;2024-03-17T04:11:08;1.27;;;0.40;;
29906;SDS011;16776;50.958;10.994;2024-03-17T04:13:36;1.73;;;0.65;;
29906;SDS011;16776;50.958;10.994;2024-03-17T04:16:03;1.73;;;0.50;;
29906;SDS011;16776;50.958;10.994;2024-03-17T04:18:32;1.17;;;0.40;;
29906;SDS011;16776;50.958;10.994;2024-03-17T04:21:00;1.90;;;0.50;;
29906;SDS011;16776;50.958;10.994;2024-03-17T04:23:31;0.50;;;0.43;;
29906;SDS011;16776;50.958;10.994;2024-03-17T04:25:58;0.52;;;0.40;;
29906;SDS011;16776;50.958;10.994;2024-03-17T04:28:25;1.23;;;0.50;;
29906;SDS011;16776;50.958;10.994;2024-03-17T04:30:51;0.50;;;0.50;;
29906;SDS011;16776;50.958;10.994;2024-03-17T04:33:18;0.82;;;0.80;;
29906;SDS011;16776;50.958;10.994;2024-03-17T04:35:45;1.15;;;0.60;;
29906;SDS011;16776;50.958;10.994;2024-03-17T04:38:11;1.55;;;0.60;;
29906;SDS011;16776;50.958;10.994;2024-03-17T04:40:41;1.65;;;0.73;;
29906;SDS011;16776;50.958;10.994;2024-03-17T04:43:07;0.80;;;0.80;;
29906;SDS011;16776;50.958;10.994;2024-03-17T04:45:34;0.88;;;0.77;;
29906;SDS011;16776;50.958;10.994;2024-03-17T04:48:02;1.02;;;0.93;;
29906;SDS011;16776;50.958;10.994;2024-03-17T04:50:29;1.88;;;0.93;;
29906;SDS011;16776;50.958;10.994;2024-03-17T04:52:57;1.33;;;0.75;;
29906;SDS011;16776;50.958;10.994;2024-03-17T04:55:23;1.63;;;0.80;;
29906;SDS011;16776;50.958;10.994;2024-03-17T04:57:51;0.70;;;0.70;;
29906;SDS011;16776;50.958;10.994;2024-03-17T05:00:18;1.92;;;0.60;;
29906;SDS011;16776;50.958;10.994;2024-03-17T05:02:46;1.17;;;0.65;;
29906;SDS011;16776;50.958;10.994;2024-03-17T05:05:13;0.50;;;0.47;;
29906;SDS011;16776;50.958;10.994;2024-03-17T05:07:39;0.73;;;0.57;;
29906;SDS011;16776;50.958;10.994;2024-03-17T05:10:06;0.85;;;0.82;;
29906;SDS011;16776;50.958;10.994;2024-03-17T05:12:33;0.88;;;0.60;;
29906;SDS011;16776;50.958;10.994;2024-03-17T05:15:01;0.52;;;0.50;;
29906;SDS011;16776;50.958;10.994;2024-03-17T05:17:29;2.38;;;0.88;;
29906;SDS011;16776;50.958;10.994;2024-03-17T05:19:56;0.50;;;0.50;;
29906;SDS011;16776;50.958;10.994;2024-03-17T05:22:25;0.82;;;0.60;;
29906;SDS011;16776;50.958;10.994;2024-03-17T05:24:52;1.38;;;0.43;;
29906;SDS011;16776;50.958;10.994;2024-03-17T05:27:18;0.70;;;0.70;;
29906;SDS011;16776;50.958;10.994;2024-03-17T05:29:45;1.15;;;0.70;;
29906;SDS011;16776;50.958;10.994;2024-03-17T05:32:13;2.05;;;0.50;;
29906;SDS011;16776;50.958;10.994;2024-03-17T05:34:39;0.75;;;0.57;;
29906;SDS011;16776;50.958;10.994;2024-03-17T05:37:06;0.63;;;0.50;;
29906;SDS011;16776;50.958;10.994;2024-03-17T05:39:33;0.57;;;0.57;;
29906;SDS011;16776;50.958;10.994;2024-03-17T05:41:59;2.25;;;0.85;;
29906;SDS011;16776;50.958;10.994;2024-03-17T05:44:30;0.68;;;0.63;;
29906;SDS011;16776;50.958;10.994;2024-03-17T05:47:15;0.80;;;0.68;;
29906;SDS011;16776;50.958;10.994;2024-03-17T05:49:43;0.68;;;0.50;;
29906;SDS011;16776;50.958;10.994;2024-03-17T05:52:10;1.13;;;0.63;;
29906;SDS011;16776;50.958;10.994;2024-03-17T05:54:37;1.42;;;0.75;;
29906;SDS011;16776;50.958;10.994;2024-03-17T05:57:04;1.67;;;0.30;;
29906;SDS011;16776;50.958;10.994;2024-03-17T05:59:34;0.50;;;0.50;;
29906;SDS011;16776;50.958;10.994;2024-03-17T06:02:00;0.77;;;0.77;;
29906;SDS011;16776;50.958;10.994;2024-03-17T06:04:29;1.23;;;0.70;;
29906;SDS011;16776;50.958;10.994;2024-03-17T06:06:56;0.85;;;0.65;;
29906;SDS011;16776;50.958;10.994;2024-03-17T06:09:22;1.02;;;0.75;;
29906;SDS011;16776;50.958;10.994;2024-03-17T06:11:49;0.80;;;0.65;;
29906;SDS011;16776;50.958;10.994;2024-03-17T06:14:16;0.57;;;0.50;;
29906;SDS011;16776;50.958;10.994;2024-03-17T06:16:42;0.85;;;0.70;;
29906;SDS011;16776;50.958;10.994;2024-03-17T06:19:10;1.55;;;0.70;;
29906;SDS011;16776;50.958;10.994;2024-03-17T06:21:38;0.70;;;0.70;;
29906;SDS011;16776;50.958;10.994;2024-03-17T06:24:05;0.70;;;0.57;;
29906;SDS011;16776;50.958;10.994;2024-03-17T06:26:32;1.38;;;0.70;;
29906;SDS011;16776;50.958;10.994;2024-03-17T06:28:59;5.32;;;1.48;;
29906;SDS011;16776;50.958;10.994;2024-03-17T06:31:26;3.72;;;2.05;;
29906;SDS011;16776;50.958;10.994;2024-03-17T06:33:52;1.42;;;0.75;;
29906;SDS011;16776;50.958;10.994;2024-03-17T06:36:19;2.78;;;1.48;;
29906;SDS011;16776;50.958;10.994;2024-03-17T06:38:47;1.08;;;0.85;;
29906;SDS011;16776;50.958;10.994;2024-03-17T06:41:14;2.05;;;0.70;;
29906;SDS011;16776;50.958;10.994;2024-03-17T06:43:40;0.77;;;0.60;;
29906;SDS011;16776;50.958;10.994;2024-03-17T06:46:08;1.75;;;1.10;;
29906;SDS011;16776;50.958;10.994;2024-03-17T06:48:36;1.60;;;1.10;;
29906;SDS011;16776;50.958;10.994;2024-03-17T06:51:02;1.02;;;0.73;;
29906;SDS011;16776;50.958;10.994;2024-03-17T06:53:30;1.75;;;0.93;;
29906;SDS011;16776;50.958;10.994;2024-03-17T06:56:00;1.05;;;0.60;;
29906;SDS011;16776;50.958;10.994;2024-03-17T06:58:27;1.23;;;0.70;;
29906;SDS011;16776;50.958;10.994;2024-03-17T07:00:55;0.90;;;0.80;;
29906;SDS011;16776;50.958;10.994;2024-03-17T07:03:26;1.08;;;0.98;;
29906;SDS011;16776;50.958;10.994;2024-03-17T07:05:54;1.10;;;0.95;;
29906;SDS011;16776;50.958;10.994;2024-03-17T07:08:21;1.15;;;1.00;;
29906;SDS011;16776;50.958;10.994;2024-03-17T07:10:58;1.38;;;0.93;;
29906;SDS011;16776;50.958;10.994;2024-03-17T07:13:28;1.38;;;0.60;;
29906;SDS011;16776;50.958;10.994;2024-03-17T07:15:55;1.38;;;0.73;;
29906;SDS011;16776;50.958;10.994;2024-03-17T07:18:22;1.17;;;0.80;;
29906;SDS011;16776;50.958;10.994;2024-03-17T07:20:50;1.90;;;0.80;;
29906;SDS011;16776;50.958;10.994;2024-03-17T07:23:17;1.88;;;0.90;;
29906;SDS011;16776;50.958;10.994;2024-03-17T07:25:50;0.93;;;0.93;;
29906;SDS011;16776;50.958;10.994;2024-03-17T07:28:20;1.75;;;1.00;;
29906;SDS011;16776;50.958;10.994;2024-03-17T07:30:47;1.48;;;0.88;;
29906;SDS011;16776;50.958;10.994;2024-03-17T07:33:14;0.90;;;0.70;;
29906;SDS011;16776;50.958;10.994;2024-03-17T07:35:46;1.25;;;1.10;;
29906;SDS011;16776;50.958;10.994;2024-03-17T07:38:13;0.80;;;0.80;;
29906;SDS011;16776;50.958;10.994;2024-03-17T07:40:40;2.72;;;0.75;;
29906;SDS011;16776;50.958;10.994;2024-03-17T07:43:07;0.70;;;0.70;;
29906;SDS011;16776;50.958;10.994;2024-03-17T07:45:35;0.77;;;0.77;;
29906;SDS011;16776;50.958;10.994;2024-03-17T07:48:01;0.98;;;0.90;;
29906;SDS011;16776;50.958;10.994;2024-03-17T07:50:28;0.80;;;0.80;;
29906;SDS011;16776;50.958;10.994;2024-03-17T07:52:55;2.45;;;0.98;;
29906;SDS011;16776;50.958;10.994;2024-03-17T07:55:22;1.35;;;1.00;;
29906;SDS011;16776;50.958;10.994;2024-03-17T07:57:48;1.60;;;1.05;;
29906;SDS011;16776;50.958;10.994;2024-03-17T08:00:16;1.20;;;0.85;;
29906;SDS011;16776;50.958;10.994;2024-03-17T08:02:45;2.95;;;0.93;;
29906;SDS011;16776;50.958;10.994;2024-03-17T08:05:12;2.15;;;0.90;;
29906;SDS011;16776;50.958;10.994;2024-03-17T08:07:39;1.55;;;1.00;;
29906;SDS011;16776;50.958;10.994;2024-03-17T08:10:07;1.00;;;0.90;;
29906;SDS011;16776;50.958;10.994;2024-03-17T08:12:34;2.88;;;1.33;;
29906;SDS011;16776;50.958;10.994;2024-03-17T08:15:00;1.77;;;1.00;;
29906;SDS011;16776;50.958;10.994;2024-03-17T08:17:27;1.98;;;0.80;;
29906;SDS011;16776;50.958;10.994;2024-03-17T08:19:55;1.38;;;0.95;;
29906;SDS011;16776;50.958;10.994;2024-03-17T08:22:22;3.35;;;1.40;;
29906;SDS011;16776;50.958;10.994;2024-03-17T08:24:48;2.53;;;1.42;;
29906;SDS011;16776;50.958;10.994;2024-03-17T08:27:15;3.20;;;1.33;;
29906;SDS011;16776;50.958;10.994;2024-03-17T08:29:42;1.88;;;1.50;;
29906;SDS011;16776;50.958;10.994;2024-03-17T08:32:08;2.38;;;1.10;;
29906;SDS011;16776;50.958;10.994;2024-03-17T08:34:35;1.88;;;1.35;;
29906;SDS011;16776;50.958;10.994;2024-03-17T08:37:03;1.50;;;1.40;;
29906;SDS011;16776;50.958;10.994;2024-03-17T08:39:29;2.03;;;1.40;;
29906;SDS011;16776;50.958;10.994;2024-03-17T08:41:56;1.55;;;1.45;;
29906;SDS011;16776;50.958;10.994;2024-03-17T08:44:23;1.90;;;1.70;;
29906;SDS011;16776;50.958;10.994;2024-03-17T08:46:49;3.47;;;2.45;;
29906;SDS011;16776;50.958;10.994;2024-03-17T08:49:16;2.15;;;1.98;;
29906;SDS011;16776;50.958;10.994;2024-03-17T08:51:42;2.20;;;2.00;;
29906;SDS011;16776;50.958;10.994;2024-03-17T08:54:10;2.92;;;2.08;;
29906;SDS011;16776;50.958;10.994;2024-03-17T08:56:37;3.55;;;1.73;;
29906;SDS011;16776;50.958;10.994;2024-03-17T08:59:03;2.45;;;2.13;;
29906;SDS011;16776;50.958;10.994;2024-03-17T09:01:30;1.85;;;1.73;;
29906;SDS011;16776;50.958;10.994;2024-03-17T09:03:57;1.80;;;1.70;;
29906;SDS011;16776;50.958;10.994;2024-03-17T09:06:26;2.00;;;1.88;;
29906;SDS011;16776;50.958;10.994;2024-03-17T09:08:55;3.33;;;1.83;;
29906;SDS011;16776;50.958;10.994;2024-03-17T09:11:25;3.28;;;2.10;;
29906;SDS011;16776;50.958;10.994;2024-03-17T09:13:53;2.83;;;2.50;;
29906;SDS011;16776;50.958;10.994;2024-03-17T09:16:19;4.00;;;2.65;;
29906;SDS011;16776;50.958;10.994;2024-03-17T09:18:48;3.60;;;2.63;;
29906;SDS011;16776;50.958;10.994;2024-03-17T09:21:15;2.67;;;2.45;;
29906;SDS011;16776;50.958;10.994;2024-03-17T09:23:42;2.83;;;1.98;;
29906;SDS011;16776;50.958;10.994;2024-03-17T09:26:09;3.42;;;1.83;;
29906;SDS011;16776;50.958;10.994;2024-03-17T09:28:40;2.00;;;1.88;;
29906;SDS011;16776;50.958;10.994;2024-03-17T09:31:07;3.38;;;2.03;;
29906;SDS011;16776;50.958;10.994;2024-03-17T09:33:34;2.47;;;2.10;;
29906;SDS011;16776;50.958;10.994;2024-03-17T09:36:02;2.38;;;2.15;;
29906;SDS011;16776;50.958;10.994;2024-03-17T09:38:31;2.70;;;2.20;;
29906;SDS011;16776;50.958;10.994;2024-03-17T09:40:58;2.97;;;2.30;;
29906;SDS011;16776;50.958;10.994;2024-03-17T09:43:26;3.33;;;2.47;;
29906;SDS011;16776;50.958;10.994;2024-03-17T09:45:54;2.92;;;2.63;;
29906;SDS011;16776;50.958;10.994;2024-03-17T09:48:23;3.13;;;2.78;;
29906;SDS011;16776;50.958;10.994;2024-03-17T09:50:51;3.22;;;2.10;;
29906;SDS011;16776;50.958;10.994;2024-03-17T09:53:21;4.15;;;2.53;;
29906;SDS011;16776;50.958;10.994;2024-03-17T09:55:50;3.00;;;2.37;;
29906;SDS011;16776;50.958;10.994;2024-03-17T09:58:18;2.67;;;2.20;;
29906;SDS011;16776;50.958;10.994;2024-03-17T10:00:45;3.63;;;2.45;;
29906;SDS011;16776;50.958;10.994;2024-03-17T10:03:14;3.35;;;2.20;;
29906;SDS011;16776;50.958;10.994;2024-03-17T10:06:10;3.30;;;2.67;;
29906;SDS011;16776;50.958;10.994;2024-03-17T10:08:40;3.00;;;2.67;;
29906;SDS011;16776;50.958;10.994;2024-03-17T10:11:10;3.53;;;3.20;;
29906;SDS011;16776;50.958;10.994;2024-03-17T10:13:38;3.50;;;2.42;;
29906;SDS011;16776;50.958;10.994;2024-03-17T10:16:04;3.00;;;2.70;;
29906;SDS011;16776;50.958;10.994;2024-03-17T10:18:31;2.65;;;2.25;;
29906;SDS011;16776;50.958;10.994;2024-03-17T10:20:59;4.25;;;2.30;;
29906;SDS011;16776;50.958;10.994;2024-03-17T10:23:27;2.03;;;1.85;;
29906;SDS011;16776;50.958;10.994;2024-03-17T10:25:53;5.38;;;2.60;;
29906;SDS011;16776;50.958;10.994;2024-03-17T10:30:58;2.60;;;2.40;;
29906;SDS011;16776;50.958;10.994;2024-03-17T10:33:25;4.30;;;2.30;;
29906;SDS011;16776;50.958;10.994;2024-03-17T10:35:57;2.58;;;2.17;;
29906;SDS011;16776;50.958;10.994;2024-03-17T10:38:26;2.35;;;1.85;;
29906;SDS011;16776;50.958;10.994;2024-03-17T10:40:53;4.38;;;2.05;;
29906;SDS011;16776;50.958;10.994;2024-03-17T10:43:19;4.68;;;3.20;;
29906;SDS011;16776;50.958;10.994;2024-03-17T10:45:49;2.30;;;2.10;;
29906;SDS011;16776;50.958;10.994;2024-03-17T10:48:19;2.65;;;2.25;;
29906;SDS011;16776;50.958;10.994;2024-03-17T10:50:47;2.80;;;2.40;;
29906;SDS011;16776;50.958;10.994;2024-03-17T10:53:17;2.55;;;2.00;;
29906;SDS011;16776;50.958;10.994;2024-03-17T10:55:51;3.17;;;2.05;;
29906;SDS011;16776;50.958;10.994;2024-03-17T10:58:28;2.13;;;2.00;;
29906;SDS011;16776;50.958;10.994;2024-03-17T11:01:00;2.20;;;1.88;;
29906;SDS011;16776;50.958;10.994;2024-03-17T11:03:28;4.45;;;2.70;;
29906;SDS011;16776;50.958;10.994;2024-03-17T11:05:57;2.95;;;2.58;;
29906;SDS011;16776;50.958;10.994;2024-03-17T11:08:27;3.97;;;2.50;;
29906;SDS011;16776;50.958;10.994;2024-03-17T11:10:53;2.55;;;2.15;;
29906;SDS011;16776;50.958;10.994;2024-03-17T11:13:23;3.55;;;2.70;;
29906;SDS011;16776;50.958;10.994;2024-03-17T11:15:51;2.97;;;2.65;;
29906;SDS011;16776;50.958;10.994;2024-03-17T11:21:20;2.53;;;1.92;;
29906;SDS011;16776;50.958;10.994;2024-03-17T11:23:56;3.20;;;2.80;;
29906;SDS011;16776;50.958;10.994;2024-03-17T11:26:26;3.40;;;2.58;;
29906;SDS011;16776;50.958;10.994;2024-03-17T11:28:53;2.20;;;2.05;;
29906;SDS011;16776;50.958;10.994;2024-03-17T11:34:30;1.80;;;1.55;;
29906;SDS011;16776;50.958;10.994;2024-03-17T11:37:03;3.40;;;1.77;;
29906;SDS011;16776;50.958;10.994;2024-03-17T11:39:47;4.07;;;2.10;;
29906;SDS011;16776;50.958;10.994;2024-03-17T11:42:21;2.13;;;2.00;;
29906;SDS011;16776;50.958;10.994;2024-03-17T11:45:00;2.05;;;1.85;;
29906;SDS011;16776;50.958;10.994;2024-03-17T11:47:35;2.63;;;1.98;;
29906;SDS011;16776;50.958;10.994;2024-03-17T11:50:03;2.50;;;2.03;;
29906;SDS011;16776;50.958;10.994;2024-03-17T11:52:30;2.47;;;1.55;;
29906;SDS011;16776;50.958;10.994;2024-03-17T11:54:58;1.88;;;1.63;;
29906;SDS011;16776;50.958;10.994;2024-03-17T11:57:24;2.42;;;1.63;;
29906;SDS011;16776;50.958;10.994;2024-03-17T11:59:53;1.85;;;1.70;;
29906;SDS011;16776;50.958;10.994;2024-03-17T12:02:20;1.60;;;1.50;;
29906;SDS011;16776;50.958;10.994;2024-03-17T12:04:47;2.97;;;1.42;;
29906;SDS011;16776;50.958;10.994;2024-03-17T12:07:14;2.22;;;2.08;;
29906;SDS011;16776;50.958;10.994;2024-03-17T12:09:43;2.42;;;1.98;;
29906;SDS011;16776;50.958;10.994;2024-03-17T12:12:14;2.30;;;1.80;;
29906;SDS011;16776;50.958;10.994;2024-03-17T12:14:43;2.13;;;1.92;;
29906;SDS011;16776;50.958;10.994;2024-03-17T12:17:09;1.90;;;1.80;;
29906;SDS011;16776;50.958;10.994;2024-03-17T12:19:37;2.17;;;1.98;;
29906;SDS011;16776;50.958;10.994;2024-03-17T12:22:03;1.75;;;1.50;;
29906;SDS011;16776;50.958;10.994;2024-03-17T12:24:32;2.28;;;2.08;;
29906;SDS011;16776;50.958;10.994;2024-03-17T12:26:59;1.85;;;1.65;;
29906;SDS011;16776;50.958;10.994;2024-03-17T12:29:29;2.17;;;1.77;;
29906;SDS011;16776;50.958;10.994;2024-03-17T12:31:58;2.22;;;1.83;;
29906;SDS011;16776;50.958;10.994;2024-03-17T12:34:27;2.03;;;1.90;;
29906;SDS011;16776;50.958;10.994;2024-03-17T12:36:55;1.85;;;1.30;;
29906;SDS011;16776;50.958;10.994;2024-03-17T12:39:24;2.70;;;2.30;;
29906;SDS011;16776;50.958;10.994;2024-03-17T12:42:03;1.98;;;1.77;;
29906;SDS011;16776;50.958;10.994;2024-03-17T12:44:33;2.20;;;1.83;;
29906;SDS011;16776;50.958;10.994;2024-03-17T12:47:00;3.78;;;1.83;;
29906;SDS011;16776;50.958;10.994;2024-03-17T12:49:28;1.92;;;1.83;;
29906;SDS011;16776;50.958;10.994;2024-03-17T12:51:54;3.03;;;1.95;;
29906;SDS011;16776;50.958;10.994;2024-03-17T12:54:21;2.08;;;1.77;;
29906;SDS011;16776;50.958;10.994;2024-03-17T12:56:49;3.17;;;1.83;;
29906;SDS011;16776;50.958;10.994;2024-03-17T12:59:39;2.20;;;2.00;;
29906;SDS011;16776;50.958;10.994;2024-03-17T13:02:40;2.17;;;1.98;;
29906;SDS011;16776;50.958;10.994;2024-03-17T13:05:10;2.45;;;1.75;;
29906;SDS011;16776;50.958;10.994;2024-03-17T13:10:06;2.65;;;1.70;;
29906;SDS011;16776;50.958;10.994;2024-03-17T13:12:33;2.30;;;1.58;;
29906;SDS011;16776;50.958;10.994;2024-03-17T13:15:01;2.13;;;1.63;;
29906;SDS011;16776;50.958;10.994;2024-03-17T13:17:30;2.15;;;1.75;;
29906;SDS011;16776;50.958;10.994;2024-03-17T13:19:58;2.15;;;1.98;;
29906;SDS011;16776;50.958;10.994;2024-03-17T13:22:25;2.08;;;1.67;;
29906;SDS011;16776;50.958;10.994;2024-03-17T13:24:52;1.65;;;1.55;;
29906;SDS011;16776;50.958;10.994;2024-03-17T13:27:18;2.05;;;1.73;;
29906;SDS011;16776;50.958;10.994;2024-03-17T13:29:47;2.00;;;1.80;;
29906;SDS011;16776;50.958;10.994;2024-03-17T13:32:16;1.75;;;1.60;;
29906;SDS011;16776;50.958;10.994;2024-03-17T13:34:43;2.45;;;1.98;;
29906;SDS011;16776;50.958;10.994;2024-03-17T13:37:10;1.60;;;1.50;;
29906;SDS011;16776;50.958;10.994;2024-03-17T13:39:37;1.88;;;1.63;;
29906;SDS011;16776;50.958;10.994;2024-03-17T13:42:04;2.47;;;1.75;;
29906;SDS011;16776;50.958;10.994;2024-03-17T13:44:31;3.38;;;1.92;;
29906;SDS011;16776;50.958;10.994;2024-03-17T13:46:58;2.28;;;1.77;;
29906;SDS011;16776;50.958;10.994;2024-03-17T13:49:28;2.30;;;1.85;;
29906;SDS011;16776;50.958;10.994;2024-03-17T13:51:54;2.97;;;2.22;;
29906;SDS011;16776;50.958;10.994;2024-03-17T13:54:22;2.50;;;1.80;;
29906;SDS011;16776;50.958;10.994;2024-03-17T13:56:48;1.92;;;1.80;;
29906;SDS011;16776;50.958;10.994;2024-03-17T13:59:15;2.17;;;2.08;;
29906;SDS011;16776;50.958;10.994;2024-03-17T14:01:42;2.53;;;1.85;;
29906;SDS011;16776;50.958;10.994;2024-03-17T14:04:11;2.25;;;2.10;;
29906;SDS011;16776;50.958;10.994;2024-03-17T14:06:41;2.20;;;2.00;;
29906;SDS011;16776;50.958;10.994;2024-03-17T14:09:08;4.75;;;2.00;;
29906;SDS011;16776;50.958;10.994;2024-03-17T14:11:35;2.67;;;2.03;;
29906;SDS011;16776;50.958;10.994;2024-03-17T14:14:03;1.95;;;1.70;;
29906;SDS011;16776;50.958;10.994;2024-03-17T14:16:30;1.77;;;1.67;;
29906;SDS011;16776;50.958;10.994;2024-03-17T14:18:58;2.47;;;2.05;;
29906;SDS011;16776;50.958;10.994;2024-03-17T14:21:25;2.60;;;1.73;;
29906;SDS011;16776;50.958;10.994;2024-03-17T14:23:53;2.28;;;2.03;;
29906;SDS011;16776;50.958;10.994;2024-03-17T14:26:20;2.53;;;2.17;;
29906;SDS011;16776;50.958;10.994;2024-03-17T14:28:47;2.65;;;2.45;;
29906;SDS011;16776;50.958;10.994;2024-03-17T14:31:13;3.03;;;2.25;;
29906;SDS011;16776;50.958;10.994;2024-03-17T14:33:40;3.47;;;3.17;;
29906;SDS011;16776;50.958;10.994;2024-03-17T14:36:07;3.42;;;2.33;;
29906;SDS011;16776;50.958;10.994;2024-03-17T14:38:33;2.42;;;2.22;;
29906;SDS011;16776;50.958;10.994;2024-03-17T14:41:01;4.68;;;3.00;;
29906;SDS011;16776;50.958;10.994;2024-03-17T14:43:29;3.30;;;2.47;;
29906;SDS011;16776;50.958;10.994;2024-03-17T14:45:56;2.70;;;2.50;;
29906;SDS011;16776;50.958;10.994;2024-03-17T14:48:23;2.80;;;2.40;;